sensor_id;sensor_type;location;lat;lon;timestamp;pressure;altitude;pressure_sealevel;temperature;humidity
64544;BME280;50936;51.660;5.616;2023-02-18T00:01:35;101886.50;;;10.81;100.00
64544;BME280;50936;51.660;5.616;2023-02-18T00:04:02;101882.06;;;10.79;100.00
64544;BME280;50936;51.660;5.616;2023-02-18T00:06:31;101870.38;;;10.79;100.00
64544;BME280;50936;51.660;5.616;2023-02-18T00:09:01;101872.13;;;10.80;100.00
64544;BME280;50936;51.660;5.616;2023-02-18T00:11:31;101867.56;;;10.81;100.00
64544;BME280;50936;51.660;5.616;2023-02-18T00:14:02;101866.63;;;10.82;100.00
64544;BME280;50936;51.660;5.616;2023-02-18T00:16:31;101869.34;;;10.82;100.00
64544;BME280;50936;51.660;5.616;2023-02-18T00:19:00;101863.06;;;10.81;100.00
64544;BME280;50936;51.660;5.616;2023-02-18T00:21:28;101860.28;;;10.83;100.00
64544;BME280;50936;51.660;5.616;2023-02-18T00:23:55;101865.69;;;10.83;100.00
64544;BME280;50936;51.660;5.616;2023-02-18T00:26:22;101855.91;;;10.80;100.00
64544;BME280;50936;51.660;5.616;2023-02-18T00:28:49;101857.75;;;10.79;100.00
64544;BME280;50936;51.660;5.616;2023-02-18T00:31:31;101848.66;;;10.81;100.00
64544;BME280;50936;51.660;5.616;2023-02-18T00:34:03;101851.34;;;10.81;100.00
64544;BME280;50936;51.660;5.616;2023-02-18T00:36:32;101846.78;;;10.83;100.00
64544;BME280;50936;51.660;5.616;2023-02-18T00:39:03;101830.56;;;10.83;100.00
64544;BME280;50936;51.660;5.616;2023-02-18T00:41:33;101839.44;;;10.85;100.00
64544;BME280;50936;51.660;5.616;2023-02-18T00:44:01;101837.78;;;10.82;100.00
64544;BME280;50936;51.660;5.616;2023-02-18T00:46:28;101836.03;;;10.81;100.00
64544;BME280;50936;51.660;5.616;2023-02-18T00:48:56;101829.75;;;10.81;100.00
64544;BME280;50936;51.660;5.616;2023-02-18T00:51:23;101820.69;;;10.82;100.00
64544;BME280;50936;51.660;5.616;2023-02-18T00:53:50;101823.47;;;10.80;100.00
64544;BME280;50936;51.660;5.616;2023-02-18T00:56:18;101826.25;;;10.78;100.00
64544;BME280;50936;51.660;5.616;2023-02-18T00:58:45;101822.59;;;10.79;100.00
64544;BME280;50936;51.660;5.616;2023-02-18T01:01:13;101823.47;;;10.80;100.00
64544;BME280;50936;51.660;5.616;2023-02-18T01:03:41;101815.28;;;10.82;100.00
64544;BME280;50936;51.660;5.616;2023-02-18T01:06:10;101818.94;;;10.81;100.00
64544;BME280;50936;51.660;5.616;2023-02-18T01:08:39;101811.81;;;10.79;100.00
64544;BME280;50936;51.660;5.616;2023-02-18T01:11:08;101806.31;;;10.81;100.00
64544;BME280;50936;51.660;5.616;2023-02-18T01:13:38;101802.72;;;10.81;100.00
64544;BME280;50936;51.660;5.616;2023-02-18T01:16:05;101799.22;;;10.78;100.00
64544;BME280;50936;51.660;5.616;2023-02-18T01:18:34;101801.00;;;10.79;100.00
64544;BME280;50936;51.660;5.616;2023-02-18T01:21:03;101796.44;;;10.80;100.00
64544;BME280;50936;51.660;5.616;2023-02-18T01:23:36;101795.59;;;10.79;100.00
64544;BME280;50936;51.660;5.616;2023-02-18T01:26:04;101796.38;;;10.82;100.00
64544;BME280;50936;51.660;5.616;2023-02-18T01:28:32;101788.19;;;10.83;100.00
64544;BME280;50936;51.660;5.616;2023-02-18T01:31:04;101795.44;;;10.83;100.00
64544;BME280;50936;51.660;5.616;2023-02-18T01:33:33;101791.03;;;10.80;100.00
64544;BME280;50936;51.660;5.616;2023-02-18T01:36:00;101793.81;;;10.78;100.00
64544;BME280;50936;51.660;5.616;2023-02-18T01:38:28;101779.53;;;10.76;100.00
64544;BME280;50936;51.660;5.616;2023-02-18T01:40:55;101791.31;;;10.75;100.00
64544;BME280;50936;51.660;5.616;2023-02-18T01:43:22;101787.00;;;10.71;100.00
64544;BME280;50936;51.660;5.616;2023-02-18T01:46:11;101785.44;;;10.67;100.00
64544;BME280;50936;51.660;5.616;2023-02-18T01:48:54;101787.53;;;10.62;100.00
64544;BME280;50936;51.660;5.616;2023-02-18T01:51:31;101786.81;;;10.58;100.00
64544;BME280;50936;51.660;5.616;2023-02-18T01:54:12;101793.28;;;10.56;100.00
64544;BME280;50936;51.660;5.616;2023-02-18T01:56:57;101789.94;;;10.51;100.00
64544;BME280;50936;51.660;5.616;2023-02-18T01:59:51;101776.94;;;10.42;100.00
64544;BME280;50936;51.660;5.616;2023-02-18T02:02:25;101783.63;;;10.34;100.00
64544;BME280;50936;51.660;5.616;2023-02-18T02:04:56;101773.91;;;10.30;100.00
64544;BME280;50936;51.660;5.616;2023-02-18T02:07:24;101771.38;;;10.27;100.00
64544;BME280;50936;51.660;5.616;2023-02-18T02:09:55;101774.13;;;10.26;100.00
64544;BME280;50936;51.660;5.616;2023-02-18T02:12:39;101769.78;;;10.23;100.00
64544;BME280;50936;51.660;5.616;2023-02-18T02:21:57;101765.59;;;10.17;100.00
64544;BME280;50936;51.660;5.616;2023-02-18T02:24:38;101760.28;;;10.16;100.00
64544;BME280;50936;51.660;5.616;2023-02-18T02:40:00;101735.44;;;10.09;100.00
64544;BME280;50936;51.660;5.616;2023-02-18T02:53:43;101707.13;;;10.00;100.00
64544;BME280;50936;51.660;5.616;2023-02-18T02:56:20;101694.47;;;10.01;100.00
64544;BME280;50936;51.660;5.616;2023-02-18T02:59:04;101689.00;;;10.02;100.00
64544;BME280;50936;51.660;5.616;2023-02-18T03:13:25;101663.47;;;9.92;100.00
64544;BME280;50936;51.660;5.616;2023-02-18T03:19:26;101645.53;;;9.91;100.00
64544;BME280;50936;51.660;5.616;2023-02-18T03:22:04;101640.16;;;9.91;100.00
64544;BME280;50936;51.660;5.616;2023-02-18T03:24:42;101633.00;;;9.90;100.00
64544;BME280;50936;51.660;5.616;2023-02-18T03:27:22;101633.16;;;9.87;100.00
64544;BME280;50936;51.660;5.616;2023-02-18T03:32:51;101634.13;;;9.86;100.00
64544;BME280;50936;51.660;5.616;2023-02-18T03:35:25;101625.16;;;9.86;100.00
64544;BME280;50936;51.660;5.616;2023-02-18T03:37:59;101615.22;;;9.86;100.00
64544;BME280;50936;51.660;5.616;2023-02-18T03:40:29;101611.75;;;9.84;100.00
64544;BME280;50936;51.660;5.616;2023-02-18T03:43:00;101610.00;;;9.83;100.00
64544;BME280;50936;51.660;5.616;2023-02-18T03:45:27;101603.72;;;9.82;100.00
64544;BME280;50936;51.660;5.616;2023-02-18T03:47:54;101602.78;;;9.83;100.00
64544;BME280;50936;51.660;5.616;2023-02-18T03:50:22;101600.09;;;9.83;100.00
64544;BME280;50936;51.660;5.616;2023-02-18T03:52:49;101594.69;;;9.83;100.00
64544;BME280;50936;51.660;5.616;2023-02-18T03:55:16;101593.88;;;9.81;100.00
64544;BME280;50936;51.660;5.616;2023-02-18T03:57:43;101591.28;;;9.80;100.00
64544;BME280;50936;51.660;5.616;2023-02-18T04:00:11;101592.06;;;9.82;100.00
64544;BME280;50936;51.660;5.616;2023-02-18T04:02:38;101581.28;;;9.82;100.00
64544;BME280;50936;51.660;5.616;2023-02-18T04:05:06;101587.53;;;9.82;100.00
64544;BME280;50936;51.660;5.616;2023-02-18T04:07:33;101578.59;;;9.82;100.00
64544;BME280;50936;51.660;5.616;2023-02-18T04:10:01;101572.41;;;9.80;100.00
64544;BME280;50936;51.660;5.616;2023-02-18T04:12:29;101572.41;;;9.80;100.00
64544;BME280;50936;51.660;5.616;2023-02-18T04:14:56;101575.19;;;9.78;100.00
64544;BME280;50936;51.660;5.616;2023-02-18T04:17:23;101558.09;;;9.78;100.00
64544;BME280;50936;51.660;5.616;2023-02-18T04:19:50;101562.56;;;9.79;100.00
64544;BME280;50936;51.660;5.616;2023-02-18T04:22:16;101563.50;;;9.78;100.00
64544;BME280;50936;51.660;5.616;2023-02-18T04:24:43;101554.63;;;9.76;100.00
64544;BME280;50936;51.660;5.616;2023-02-18T04:27:10;101552.91;;;9.75;100.00
64544;BME280;50936;51.660;5.616;2023-02-18T04:29:37;101552.91;;;9.75;100.00
64544;BME280;50936;51.660;5.616;2023-02-18T04:32:04;101552.00;;;9.74;100.00
64544;BME280;50936;51.660;5.616;2023-02-18T04:34:31;101546.72;;;9.73;100.00
64544;BME280;50936;51.660;5.616;2023-02-18T04:36:58;101550.34;;;9.72;100.00
64544;BME280;50936;51.660;5.616;2023-02-18T04:39:25;101549.41;;;9.73;100.00
64544;BME280;50936;51.660;5.616;2023-02-18T04:41:52;101549.50;;;9.71;100.00
64544;BME280;50936;51.660;5.616;2023-02-18T04:44:19;101544.09;;;9.71;100.00
64544;BME280;50936;51.660;5.616;2023-02-18T04:46:46;101553.06;;;9.72;100.00
64544;BME280;50936;51.660;5.616;2023-02-18T04:49:12;101542.41;;;9.69;100.00
64544;BME280;50936;51.660;5.616;2023-02-18T04:51:39;101532.59;;;9.68;100.00
64544;BME280;50936;51.660;5.616;2023-02-18T04:54:06;101546.97;;;9.68;100.00
64544;BME280;50936;51.660;5.616;2023-02-18T04:56:33;101544.34;;;9.67;100.00
64544;BME280;50936;51.660;5.616;2023-02-18T04:59:00;101546.25;;;9.64;100.00
64544;BME280;50936;51.660;5.616;2023-02-18T05:01:26;101533.75;;;9.63;100.00
64544;BME280;50936;51.660;5.616;2023-02-18T05:03:54;101538.94;;;9.67;100.00
64544;BME280;50936;51.660;5.616;2023-02-18T05:06:21;101534.59;;;9.64;100.00
64544;BME280;50936;51.660;5.616;2023-02-18T05:08:48;101523.81;;;9.64;100.00
64544;BME280;50936;51.660;5.616;2023-02-18T05:11:14;101523.88;;;9.62;100.00
64544;BME280;50936;51.660;5.616;2023-02-18T05:13:41;101531.97;;;9.62;100.00
64544;BME280;50936;51.660;5.616;2023-02-18T05:16:08;101519.44;;;9.61;100.00
64544;BME280;50936;51.660;5.616;2023-02-18T05:18:36;101513.19;;;9.61;100.00
64544;BME280;50936;51.660;5.616;2023-02-18T05:21:03;101510.41;;;9.62;100.00
64544;BME280;50936;51.660;5.616;2023-02-18T05:23:29;101507.72;;;9.62;100.00
64544;BME280;50936;51.660;5.616;2023-02-18T05:25:57;101508.66;;;9.61;100.00
64544;BME280;50936;51.660;5.616;2023-02-18T05:28:24;101500.66;;;9.60;100.00
64544;BME280;50936;51.660;5.616;2023-02-18T05:30:51;101502.47;;;9.59;100.00
64544;BME280;50936;51.660;5.616;2023-02-18T05:33:17;101515.09;;;9.59;100.00
64544;BME280;50936;51.660;5.616;2023-02-18T05:35:44;101507.94;;;9.58;100.00
64544;BME280;50936;51.660;5.616;2023-02-18T05:38:11;101503.44;;;9.58;100.00
64544;BME280;50936;51.660;5.616;2023-02-18T05:40:38;101512.47;;;9.57;100.00
64544;BME280;50936;51.660;5.616;2023-02-18T05:43:05;101515.16;;;9.57;100.00
64544;BME280;50936;51.660;5.616;2023-02-18T05:45:32;101510.75;;;9.56;100.00
64544;BME280;50936;51.660;5.616;2023-02-18T05:47:58;101493.59;;;9.57;100.00
64544;BME280;50936;51.660;5.616;2023-02-18T05:50:25;101497.28;;;9.56;100.00
64544;BME280;50936;51.660;5.616;2023-02-18T05:52:52;101489.19;;;9.56;100.00
64544;BME280;50936;51.660;5.616;2023-02-18T05:55:19;101491.97;;;9.55;100.00
64544;BME280;50936;51.660;5.616;2023-02-18T05:57:46;101496.50;;;9.54;100.00
64544;BME280;50936;51.660;5.616;2023-02-18T06:00:13;101487.59;;;9.52;100.00
64544;BME280;50936;51.660;5.616;2023-02-18T06:02:41;101476.78;;;9.52;100.00
64544;BME280;50936;51.660;5.616;2023-02-18T06:05:09;101478.56;;;9.53;100.00
64544;BME280;50936;51.660;5.616;2023-02-18T06:07:36;101483.16;;;9.51;100.00
64544;BME280;50936;51.660;5.616;2023-02-18T06:10:04;101478.63;;;9.52;100.00
64544;BME280;50936;51.660;5.616;2023-02-18T06:12:32;101487.59;;;9.52;100.00
64544;BME280;50936;51.660;5.616;2023-02-18T06:14:59;101488.47;;;9.53;100.00
64544;BME280;50936;51.660;5.616;2023-02-18T06:17:26;101479.59;;;9.51;100.00
64544;BME280;50936;51.660;5.616;2023-02-18T06:19:53;101484.09;;;9.50;100.00
64544;BME280;50936;51.660;5.616;2023-02-18T06:22:20;101465.16;;;9.52;100.00
64544;BME280;50936;51.660;5.616;2023-02-18T06:24:47;101468.69;;;9.52;100.00
64544;BME280;50936;51.660;5.616;2023-02-18T06:27:14;101469.69;;;9.51;100.00
64544;BME280;50936;51.660;5.616;2023-02-18T06:29:41;101465.22;;;9.50;100.00
64544;BME280;50936;51.660;5.616;2023-02-18T06:32:08;101471.59;;;9.49;100.00
64544;BME280;50936;51.660;5.616;2023-02-18T06:34:35;101452.72;;;9.49;100.00
64544;BME280;50936;51.660;5.616;2023-02-18T06:37:02;101478.72;;;9.50;100.00
64544;BME280;50936;51.660;5.616;2023-02-18T06:39:29;101470.69;;;9.49;100.00
64544;BME280;50936;51.660;5.616;2023-02-18T06:41:56;101462.53;;;9.50;100.00
64544;BME280;50936;51.660;5.616;2023-02-18T06:44:23;101460.81;;;9.49;100.00
64544;BME280;50936;51.660;5.616;2023-02-18T06:46:50;101473.31;;;9.50;100.00
64544;BME280;50936;51.660;5.616;2023-02-18T06:49:17;101480.47;;;9.51;100.00
64544;BME280;50936;51.660;5.616;2023-02-18T06:51:44;101471.41;;;9.52;100.00
64544;BME280;50936;51.660;5.616;2023-02-18T06:54:11;101475.06;;;9.51;100.00
64544;BME280;50936;51.660;5.616;2023-02-18T06:56:38;101467.91;;;9.50;100.00
64544;BME280;50936;51.660;5.616;2023-02-18T06:59:05;101472.44;;;9.50;100.00
64544;BME280;50936;51.660;5.616;2023-02-18T07:01:34;101482.38;;;9.49;100.00
64544;BME280;50936;51.660;5.616;2023-02-18T07:04:01;101480.63;;;9.48;100.00
64544;BME280;50936;51.660;5.616;2023-02-18T07:06:29;101481.66;;;9.46;100.00
64544;BME280;50936;51.660;5.616;2023-02-18T07:08:56;101496.94;;;9.45;100.00
64544;BME280;50936;51.660;5.616;2023-02-18T07:11:23;101470.00;;;9.45;100.00
64544;BME280;50936;51.660;5.616;2023-02-18T07:13:50;101495.22;;;9.44;100.00
64544;BME280;50936;51.660;5.616;2023-02-18T07:16:17;101485.38;;;9.43;100.00
64544;BME280;50936;51.660;5.616;2023-02-18T07:18:45;101480.97;;;9.42;100.00
64544;BME280;50936;51.660;5.616;2023-02-18T07:21:12;101483.81;;;9.39;100.00
64544;BME280;50936;51.660;5.616;2023-02-18T07:23:39;101486.84;;;9.33;100.00
64544;BME280;50936;51.660;5.616;2023-02-18T07:26:08;101489.78;;;9.28;100.00
64544;BME280;50936;51.660;5.616;2023-02-18T07:28:38;101485.44;;;9.25;100.00
64544;BME280;50936;51.660;5.616;2023-02-18T07:31:06;101500.03;;;9.21;100.00
64544;BME280;50936;51.660;5.616;2023-02-18T07:33:33;101491.34;;;9.16;100.00
64544;BME280;50936;51.660;5.616;2023-02-18T07:36:01;101513.19;;;9.10;100.00
64544;BME280;50936;51.660;5.616;2023-02-18T07:38:29;101512.66;;;9.03;100.00
64544;BME280;50936;51.660;5.616;2023-02-18T07:40:56;101507.44;;;9.00;100.00
64544;BME280;50936;51.660;5.616;2023-02-18T07:43:24;101509.41;;;8.97;100.00
64544;BME280;50936;51.660;5.616;2023-02-18T07:45:51;101521.16;;;8.96;100.00
64544;BME280;50936;51.660;5.616;2023-02-18T07:48:18;101513.16;;;8.94;100.00
64544;BME280;50936;51.660;5.616;2023-02-18T07:50:45;101521.31;;;8.93;100.00
64544;BME280;50936;51.660;5.616;2023-02-18T07:53:14;101509.66;;;8.92;100.00
64544;BME280;50936;51.660;5.616;2023-02-18T07:55:42;101507.91;;;8.91;100.00
64544;BME280;50936;51.660;5.616;2023-02-18T07:58:21;101517.81;;;8.91;100.00
64544;BME280;50936;51.660;5.616;2023-02-18T08:00:50;101520.34;;;8.94;100.00
64544;BME280;50936;51.660;5.616;2023-02-18T08:03:21;101523.94;;;8.94;100.00
64544;BME280;50936;51.660;5.616;2023-02-18T08:05:50;101525.66;;;8.95;100.00
64544;BME280;50936;51.660;5.616;2023-02-18T08:08:22;101512.97;;;8.97;100.00
64544;BME280;50936;51.660;5.616;2023-02-18T08:10:51;101510.19;;;8.99;100.00
64544;BME280;50936;51.660;5.616;2023-02-18T08:13:19;101506.41;;;9.03;100.00
64544;BME280;50936;51.660;5.616;2023-02-18T08:15:47;101503.47;;;9.08;100.00
64544;BME280;50936;51.660;5.616;2023-02-18T08:18:24;101524.94;;;9.09;100.00
64544;BME280;50936;51.660;5.616;2023-02-18T08:20:52;101513.91;;;9.14;100.00
64544;BME280;50936;51.660;5.616;2023-02-18T08:23:20;101509.16;;;9.19;100.00
64544;BME280;50936;51.660;5.616;2023-02-18T08:25:49;101500.66;;;9.27;100.00
64544;BME280;50936;51.660;5.616;2023-02-18T08:28:19;101503.03;;;9.33;100.00
64544;BME280;50936;51.660;5.616;2023-02-18T08:30:50;101497.38;;;9.37;100.00
64544;BME280;50936;51.660;5.616;2023-02-18T08:33:19;101508.09;;;9.39;100.00
64544;BME280;50936;51.660;5.616;2023-02-18T08:35:48;101496.38;;;9.40;100.00
64544;BME280;50936;51.660;5.616;2023-02-18T08:38:18;101510.63;;;9.42;100.00
64544;BME280;50936;51.660;5.616;2023-02-18T08:40:46;101506.97;;;9.43;100.00
64544;BME280;50936;51.660;5.616;2023-02-18T08:43:14;101513.13;;;9.45;100.00
64544;BME280;50936;51.660;5.616;2023-02-18T08:45:43;101509.34;;;9.49;100.00
64544;BME280;50936;51.660;5.616;2023-02-18T08:48:12;101507.50;;;9.50;100.00
64544;BME280;50936;51.660;5.616;2023-02-18T08:50:46;101520.13;;;9.49;100.00
64544;BME280;50936;51.660;5.616;2023-02-18T08:53:14;101523.59;;;9.51;100.00
64544;BME280;50936;51.660;5.616;2023-02-18T08:55:42;101525.34;;;9.52;100.00
64544;BME280;50936;51.660;5.616;2023-02-18T08:58:10;101518.91;;;9.55;100.00
64544;BME280;50936;51.660;5.616;2023-02-18T09:00:38;101517.88;;;9.57;100.00
64544;BME280;50936;51.660;5.616;2023-02-18T09:03:06;101516.16;;;9.56;100.00
64544;BME280;50936;51.660;5.616;2023-02-18T09:05:33;101512.81;;;9.51;100.00
64544;BME280;50936;51.660;5.616;2023-02-18T09:08:00;101512.03;;;9.49;100.00
64544;BME280;50936;51.660;5.616;2023-02-18T09:10:27;101521.16;;;9.47;100.00
64544;BME280;50936;51.660;5.616;2023-02-18T09:12:54;101516.97;;;9.41;100.00
64544;BME280;50936;51.660;5.616;2023-02-18T09:15:20;101518.25;;;9.34;100.00
64544;BME280;50936;51.660;5.616;2023-02-18T09:17:47;101517.63;;;9.29;100.00
64544;BME280;50936;51.660;5.616;2023-02-18T09:20:14;101508.84;;;9.25;100.00
64544;BME280;50936;51.660;5.616;2023-02-18T09:22:41;101516.38;;;9.18;100.00
64544;BME280;50936;51.660;5.616;2023-02-18T09:25:08;101517.66;;;9.11;100.00
64544;BME280;50936;51.660;5.616;2023-02-18T09:27:35;101513.44;;;9.05;100.00
64544;BME280;50936;51.660;5.616;2023-02-18T09:30:02;101510.03;;;9.02;100.00
64544;BME280;50936;51.660;5.616;2023-02-18T09:32:29;101504.81;;;8.99;100.00
64544;BME280;50936;51.660;5.616;2023-02-18T09:35:02;101506.56;;;9.00;100.00
64544;BME280;50936;51.660;5.616;2023-02-18T09:37:30;101507.50;;;8.99;100.00
64544;BME280;50936;51.660;5.616;2023-02-18T09:39:57;101509.25;;;9.00;100.00
64544;BME280;50936;51.660;5.616;2023-02-18T09:42:33;101512.81;;;9.00;100.00
64544;BME280;50936;51.660;5.616;2023-02-18T09:45:05;101514.50;;;9.03;100.00
64544;BME280;50936;51.660;5.616;2023-02-18T09:47:37;101518.59;;;9.10;100.00
64544;BME280;50936;51.660;5.616;2023-02-18T09:50:24;101512.88;;;9.16;100.00
64544;BME280;50936;51.660;5.616;2023-02-18T09:52:55;101513.34;;;9.24;100.00
64544;BME280;50936;51.660;5.616;2023-02-18T09:55:37;101528.22;;;9.32;100.00
64544;BME280;50936;51.660;5.616;2023-02-18T09:58:14;101521.66;;;9.37;100.00
64544;BME280;50936;51.660;5.616;2023-02-18T10:00:47;101527.75;;;9.41;100.00
64544;BME280;50936;51.660;5.616;2023-02-18T10:03:23;101529.50;;;9.42;100.00
64544;BME280;50936;51.660;5.616;2023-02-18T10:08:42;101519.94;;;9.52;100.00
64544;BME280;50936;51.660;5.616;2023-02-18T10:11:14;101526.94;;;9.56;100.00
64544;BME280;50936;51.660;5.616;2023-02-18T10:13:47;101524.84;;;9.61;100.00
64544;BME280;50936;51.660;5.616;2023-02-18T10:16:17;101539.91;;;9.66;100.00
64544;BME280;50936;51.660;5.616;2023-02-18T10:18:47;101547.81;;;9.69;100.00
64544;BME280;50936;51.660;5.616;2023-02-18T10:21:23;101537.03;;;9.69;100.00
64544;BME280;50936;51.660;5.616;2023-02-18T10:24:02;101541.47;;;9.70;100.00
64544;BME280;50936;51.660;5.616;2023-02-18T10:26:34;101536.72;;;9.75;100.00
64544;BME280;50936;51.660;5.616;2023-02-18T10:29:13;101558.28;;;9.75;100.00
64544;BME280;50936;51.660;5.616;2023-02-18T10:31:53;101566.47;;;9.73;100.00
64544;BME280;50936;51.660;5.616;2023-02-18T10:37:23;101566.69;;;9.69;100.00
64544;BME280;50936;51.660;5.616;2023-02-18T10:40:12;101574.78;;;9.69;100.00
64544;BME280;50936;51.660;5.616;2023-02-18T10:48:41;101560.22;;;9.55;100.00
64544;BME280;50936;51.660;5.616;2023-02-18T10:51:21;101563.09;;;9.52;100.00
64544;BME280;50936;51.660;5.616;2023-02-18T10:54:00;101574.22;;;9.46;100.00
64544;BME280;50936;51.660;5.616;2023-02-18T10:59:22;101578.03;;;9.42;100.00
64544;BME280;50936;51.660;5.616;2023-02-18T11:02:13;101579.94;;;9.40;100.00
64544;BME280;50936;51.660;5.616;2023-02-18T11:04:44;101578.50;;;9.33;100.00
64544;BME280;50936;51.660;5.616;2023-02-18T11:07:15;101581.44;;;9.28;100.00
64544;BME280;50936;51.660;5.616;2023-02-18T11:12:25;101591.69;;;9.21;100.00
64544;BME280;50936;51.660;5.616;2023-02-18T11:17:40;101588.03;;;9.22;100.00
64544;BME280;50936;51.660;5.616;2023-02-18T11:20:33;101584.31;;;9.25;100.00
64544;BME280;50936;51.660;5.616;2023-02-18T11:25:34;101592.06;;;9.31;100.00
64544;BME280;50936;51.660;5.616;2023-02-18T11:28:05;101591.91;;;9.34;100.00
64544;BME280;50936;51.660;5.616;2023-02-18T11:30:58;101576.59;;;9.35;100.00
64544;BME280;50936;51.660;5.616;2023-02-18T11:33:40;101581.84;;;9.38;100.00
64544;BME280;50936;51.660;5.616;2023-02-18T11:36:17;101587.25;;;9.38;100.00
64544;BME280;50936;51.660;5.616;2023-02-18T11:39:01;101583.41;;;9.42;100.00
64544;BME280;50936;51.660;5.616;2023-02-18T11:44:07;101578.81;;;9.44;100.00
64544;BME280;50936;51.660;5.616;2023-02-18T11:47:03;101575.16;;;9.45;100.00
64544;BME280;50936;51.660;5.616;2023-02-18T11:49:33;101584.22;;;9.44;100.00
64544;BME280;50936;51.660;5.616;2023-02-18T11:52:25;101580.66;;;9.43;100.00
64544;BME280;50936;51.660;5.616;2023-02-18T11:57:54;101577.69;;;9.48;100.00
64544;BME280;50936;51.660;5.616;2023-02-18T12:00:43;101573.09;;;9.50;100.00
64544;BME280;50936;51.660;5.616;2023-02-18T12:03:21;101576.56;;;9.52;100.00
64544;BME280;50936;51.660;5.616;2023-02-18T12:06:03;101562.00;;;9.56;100.00
64544;BME280;50936;51.660;5.616;2023-02-18T12:08:48;101555.84;;;9.70;100.00
64544;BME280;50936;51.660;5.616;2023-02-18T12:11:41;101549.44;;;9.89;100.00
64544;BME280;50936;51.660;5.616;2023-02-18T12:14:16;101547.88;;;10.00;100.00
64544;BME280;50936;51.660;5.616;2023-02-18T12:23:00;101544.94;;;10.21;100.00
64544;BME280;50936;51.660;5.616;2023-02-18T12:26:16;101529.44;;;10.25;100.00
64544;BME280;50936;51.660;5.616;2023-02-18T13:07:06;101551.34;;;11.12;100.00
64544;BME280;50936;51.660;5.616;2023-02-18T13:12:57;101555.03;;;11.26;100.00
64544;BME280;50936;51.660;5.616;2023-02-18T13:18:02;101549.44;;;11.29;100.00
64544;BME280;50936;51.660;5.616;2023-02-18T13:20:58;101558.50;;;11.28;100.00
64544;BME280;50936;51.660;5.616;2023-02-18T13:23:35;101564.13;;;11.25;100.00
64544;BME280;50936;51.660;5.616;2023-02-18T13:26:07;101557.81;;;11.24;100.00
64544;BME280;50936;51.660;5.616;2023-02-18T13:28:57;101566.69;;;11.26;100.00
64544;BME280;50936;51.660;5.616;2023-02-18T13:35:07;101550.25;;;11.45;100.00
64544;BME280;50936;51.660;5.616;2023-02-18T13:38:09;101549.47;;;11.43;100.00
64544;BME280;50936;51.660;5.616;2023-02-18T13:40:41;101556.00;;;11.39;100.00
64544;BME280;50936;51.660;5.616;2023-02-18T13:43:30;101549.72;;;11.39;100.00
64544;BME280;50936;51.660;5.616;2023-02-18T13:46:09;101552.34;;;11.40;100.00
64544;BME280;50936;51.660;5.616;2023-02-18T13:48:49;101546.84;;;11.42;100.00
64544;BME280;50936;51.660;5.616;2023-02-18T13:51:46;101557.59;;;11.43;100.00
64544;BME280;50936;51.660;5.616;2023-02-18T13:57:06;101560.56;;;11.39;100.00
64544;BME280;50936;51.660;5.616;2023-02-18T13:59:56;101549.06;;;11.35;100.00
64544;BME280;50936;51.660;5.616;2023-02-18T14:02:34;101556.00;;;11.39;100.00
64544;BME280;50936;51.660;5.616;2023-02-18T14:10:03;101558.13;;;11.48;100.00
64544;BME280;50936;51.660;5.616;2023-02-18T14:28:56;101571.31;;;11.54;100.00
64544;BME280;50936;51.660;5.616;2023-02-18T14:34:38;101568.78;;;11.66;100.00
64544;BME280;50936;51.660;5.616;2023-02-18T14:37:39;101570.16;;;11.73;100.00
64544;BME280;50936;51.660;5.616;2023-02-18T14:43:26;101575.16;;;11.79;100.00
64544;BME280;50936;51.660;5.616;2023-02-18T14:46:06;101569.75;;;11.79;100.00
64544;BME280;50936;51.660;5.616;2023-02-18T14:51:39;101555.28;;;11.80;100.00
64544;BME280;50936;51.660;5.616;2023-02-18T14:54:14;101566.09;;;11.80;100.00
64544;BME280;50936;51.660;5.616;2023-02-18T14:56:55;101556.03;;;11.82;100.00
64544;BME280;50936;51.660;5.616;2023-02-18T14:59:29;101550.72;;;11.81;100.00
64544;BME280;50936;51.660;5.616;2023-02-18T15:02:00;101558.84;;;11.81;100.00
64544;BME280;50936;51.660;5.616;2023-02-18T15:04:30;101566.78;;;11.84;100.00
64544;BME280;50936;51.660;5.616;2023-02-18T15:07:03;101557.41;;;11.89;100.00
64544;BME280;50936;51.660;5.616;2023-02-18T15:09:31;101564.38;;;11.93;100.00
64544;BME280;50936;51.660;5.616;2023-02-18T15:12:03;101563.31;;;11.96;100.00
64544;BME280;50936;51.660;5.616;2023-02-18T15:14:36;101555.31;;;11.94;100.00
64544;BME280;50936;51.660;5.616;2023-02-18T15:17:14;101561.66;;;11.93;100.00
64544;BME280;50936;51.660;5.616;2023-02-18T15:19:52;101554.69;;;11.89;100.00
64544;BME280;50936;51.660;5.616;2023-02-18T15:22:24;101562.03;;;11.87;100.00
64544;BME280;50936;51.660;5.616;2023-02-18T15:24:55;101563.97;;;11.85;100.00
64544;BME280;50936;51.660;5.616;2023-02-18T15:27:26;101563.00;;;11.86;100.00
64544;BME280;50936;51.660;5.616;2023-02-18T15:32:31;101559.34;;;11.87;100.00
64544;BME280;50936;51.660;5.616;2023-02-18T15:35:01;101554.88;;;11.86;100.00
64544;BME280;50936;51.660;5.616;2023-02-18T15:37:29;101569.38;;;11.85;100.00
64544;BME280;50936;51.660;5.616;2023-02-18T15:39:57;101559.59;;;11.83;100.00
64544;BME280;50936;51.660;5.616;2023-02-18T15:42:35;101554.41;;;11.80;100.00
64544;BME280;50936;51.660;5.616;2023-02-18T15:47:47;101562.81;;;11.75;100.00
64544;BME280;50936;51.660;5.616;2023-02-18T15:50:21;101560.50;;;11.69;100.00
64544;BME280;50936;51.660;5.616;2023-02-18T15:52:53;101560.59;;;11.67;100.00
64544;BME280;50936;51.660;5.616;2023-02-18T15:55:31;101561.53;;;11.66;100.00
64544;BME280;50936;51.660;5.616;2023-02-18T15:58:07;101555.25;;;11.66;100.00